Time;durP1;ratioP1;P1;durP2;ratioP2;P2;SDS_P1;SDS_P2;PMS_P1;PMS_P2;Temp;Humidity;BMP_temperature;BMP_pressure;BME280_temperature;BME280_humidity;BME280_pressure;Samples;Min_cycle;Max_cycle;Signal;HPM_P1;HPM_P2
2021/07/07 00:01:41;;;;;;;3.43;3.03;;;16.10;99.90;;;;;;5093154;28;20482;-77
2021/07/07 00:04:08;;;;;;;5.20;3.30;;;16.00;99.90;;;;;;5093596;28;20777;-77
2021/07/07 00:06:36;;;;;;;4.87;3.40;;;16.00;99.90;;;;;;5093163;28;20478;-77
2021/07/07 00:09:03;;;;;;;5.27;3.13;;;16.00;99.90;;;;;;5093361;28;20820;-77
2021/07/07 00:11:30;;;;;;;4.73;3.50;;;16.00;99.90;;;;;;5093476;28;20486;-77
2021/07/07 00:13:57;;;;;;;4.90;3.60;;;15.90;99.90;;;;;;5093147;28;20939;-77
2021/07/07 00:16:24;;;;;;;2.70;2.50;;;15.90;99.90;;;;;;5093159;28;20443;-77
2021/07/07 00:18:50;;;;;;;5.57;3.90;;;16.00;99.90;;;;;;5093335;28;20472;-77
2021/07/07 00:21:17;;;;;;;6.83;3.80;;;16.00;99.90;;;;;;5093371;28;20447;-76
2021/07/07 00:23:45;;;;;;;4.20;3.80;;;16.00;99.90;;;;;;5093353;28;20444;-77
2021/07/07 00:26:12;;;;;;;3.80;3.50;;;16.00;99.90;;;;;;5093475;28;20482;-76
2021/07/07 00:28:39;;;;;;;3.70;3.40;;;16.00;99.90;;;;;;5093237;28;20460;-77
2021/07/07 00:31:05;;;;;;;3.60;3.17;;;16.00;99.90;;;;;;5093231;28;20966;-77
2021/07/07 00:33:32;;;;;;;7.43;4.37;;;16.00;99.90;;;;;;5093249;28;20451;-77
2021/07/07 00:35:59;;;;;;;5.53;4.10;;;16.00;99.90;;;;;;5093176;28;20935;-77
2021/07/07 00:38:26;;;;;;;4.30;3.90;;;16.00;99.90;;;;;;5093143;28;20468;-77
2021/07/07 00:40:56;;;;;;;4.13;3.73;;;16.00;99.90;;;;;;5092933;28;20428;-77
2021/07/07 00:43:23;;;;;;;5.10;4.63;;;15.90;99.90;;;;;;5093197;28;20433;-77
2021/07/07 00:45:49;;;;;;;5.37;4.40;;;16.00;99.90;;;;;;5093068;28;20479;-77
2021/07/07 00:48:16;;;;;;;5.33;3.80;;;15.90;99.90;;;;;;5092716;28;21017;-77
2021/07/07 00:50:43;;;;;;;3.67;3.27;;;15.90;99.90;;;;;;5092864;28;20537;-77
2021/07/07 00:53:11;;;;;;;3.87;3.57;;;15.90;99.90;;;;;;5092781;28;20444;-77
2021/07/07 00:55:40;;;;;;;3.17;2.87;;;15.90;99.90;;;;;;5093089;28;20439;-77
2021/07/07 00:58:09;;;;;;;3.10;2.80;;;15.90;99.90;;;;;;5093005;28;20464;-77
2021/07/07 01:00:36;;;;;;;2.97;2.77;;;15.90;99.90;;;;;;5093029;28;20459;-77
2021/07/07 01:03:03;;;;;;;4.00;2.80;;;15.90;99.90;;;;;;5092793;28;20517;-77
2021/07/07 01:05:31;;;;;;;3.07;2.67;;;15.90;99.90;;;;;;5092756;28;20813;-77
2021/07/07 01:07:57;;;;;;;3.07;2.80;;;15.90;99.90;;;;;;5092883;28;20471;-77
2021/07/07 01:10:24;;;;;;;4.40;2.97;;;15.90;99.90;;;;;;5092908;28;20447;-77
2021/07/07 01:12:53;;;;;;;2.93;2.67;;;16.00;99.90;;;;;;5093138;28;20440;-77
2021/07/07 01:15:22;;;;;;;2.93;2.73;;;16.00;99.90;;;;;;5092893;28;20442;-77
2021/07/07 01:17:50;;;;;;;3.47;3.17;;;16.00;99.90;;;;;;5093512;28;20467;-76
2021/07/07 01:20:19;;;;;;;10.40;2.90;;;16.00;99.90;;;;;;5096454;28;20451;-77
2021/07/07 01:22:48;;;;;;;3.50;3.00;;;16.00;99.90;;;;;;5096468;28;20451;-77
2021/07/07 01:25:16;;;;;;;3.30;2.77;;;16.00;99.90;;;;;;5096484;28;20444;-77
2021/07/07 01:27:44;;;;;;;2.43;2.23;;;16.00;99.90;;;;;;5096201;28;20491;-77
2021/07/07 01:30:14;;;;;;;2.17;1.97;;;15.90;99.90;;;;;;5096308;28;20450;-77
2021/07/07 01:32:41;;;;;;;2.10;1.80;;;15.90;99.90;;;;;;5096265;28;20443;-77
2021/07/07 01:35:10;;;;;;;2.37;2.17;;;15.90;99.90;;;;;;5096282;28;20448;-77
2021/07/07 01:37:37;;;;;;;2.37;2.07;;;15.80;99.90;;;;;;5095850;28;20460;-76
2021/07/07 01:40:07;;;;;;;2.53;2.33;;;15.80;99.90;;;;;;5096545;28;20775;-76
2021/07/07 01:42:34;;;;;;;3.20;2.70;;;15.80;99.90;;;;;;5095805;28;20451;-77
2021/07/07 01:45:01;;;;;;;3.13;2.83;;;15.70;99.90;;;;;;5096048;28;20451;-77
2021/07/07 01:47:27;;;;;;;2.83;2.63;;;15.70;99.90;;;;;;5095834;28;20490;-77
2021/07/07 01:49:54;;;;;;;2.67;2.47;;;15.70;99.90;;;;;;5095941;28;20534;-77
2021/07/07 01:52:21;;;;;;;2.20;2.03;;;15.80;99.90;;;;;;5095893;28;21001;-77
2021/07/07 01:54:48;;;;;;;3.40;2.73;;;15.80;99.90;;;;;;5095844;28;20455;-76
2021/07/07 01:57:16;;;;;;;2.10;1.93;;;15.90;99.90;;;;;;5096331;28;20451;-77
2021/07/07 01:59:42;;;;;;;3.33;2.57;;;15.90;99.90;;;;;;5095727;28;20459;-77
2021/07/07 02:02:09;;;;;;;6.90;2.70;;;15.90;99.90;;;;;;5095361;28;20484;-78
2021/07/07 02:04:36;;;;;;;3.20;2.17;;;15.90;99.90;;;;;;5095419;28;20429;-77
2021/07/07 02:07:03;;;;;;;2.20;2.00;;;15.90;99.90;;;;;;5095252;28;20487;-77
2021/07/07 02:09:30;;;;;;;4.20;2.40;;;15.90;99.90;;;;;;5095535;28;20834;-76
2021/07/07 02:11:57;;;;;;;2.60;2.17;;;15.90;99.90;;;;;;5095505;28;20460;-77
2021/07/07 02:14:25;;;;;;;2.00;1.90;;;15.90;99.90;;;;;;5095180;28;20939;-77
2021/07/07 02:16:53;;;;;;;2.23;1.90;;;15.90;99.90;;;;;;5095127;28;20977;-77
2021/07/07 02:19:19;;;;;;;2.20;2.00;;;15.80;99.90;;;;;;5095022;28;20994;-77
2021/07/07 02:21:46;;;;;;;2.30;1.90;;;15.80;99.90;;;;;;5095466;28;20443;-77
2021/07/07 02:24:13;;;;;;;3.87;3.10;;;15.80;99.90;;;;;;5095250;28;20458;-77
2021/07/07 02:26:41;;;;;;;2.33;2.03;;;15.80;99.90;;;;;;5094870;28;20994;-78
2021/07/07 02:29:08;;;;;;;2.40;2.20;;;15.80;99.90;;;;;;5094271;28;20464;-78
2021/07/07 02:31:36;;;;;;;4.57;2.30;;;15.80;99.90;;;;;;5094895;28;20443;-77
2021/07/07 02:34:03;;;;;;;5.90;2.27;;;15.70;99.90;;;;;;5095051;28;20456;-77
2021/07/07 02:36:29;;;;;;;5.13;2.47;;;15.70;99.90;;;;;;5095032;28;20440;-77
2021/07/07 02:38:56;;;;;;;2.77;2.57;;;15.70;99.90;;;;;;5094629;28;20460;-77
2021/07/07 02:41:24;;;;;;;3.00;2.80;;;15.70;99.90;;;;;;5094877;28;20459;-77
2021/07/07 02:43:51;;;;;;;1.90;1.80;;;15.70;99.90;;;;;;5094586;28;20939;-77
2021/07/07 02:46:18;;;;;;;4.23;2.17;;;15.70;99.90;;;;;;5094808;28;20485;-77
2021/07/07 02:48:46;;;;;;;2.33;1.60;;;15.80;99.90;;;;;;5094747;28;20467;-77
2021/07/07 02:51:13;;;;;;;2.93;2.20;;;15.80;99.90;;;;;;5094760;28;20444;-77
2021/07/07 02:53:39;;;;;;;1.80;1.70;;;15.80;99.90;;;;;;5094387;28;20935;-77
2021/07/07 02:56:06;;;;;;;3.80;2.20;;;15.80;99.90;;;;;;5094455;28;20409;-77
2021/07/07 02:58:33;;;;;;;2.90;2.23;;;15.80;99.90;;;;;;5094245;28;20459;-77
2021/07/07 03:01:01;;;;;;;3.40;2.20;;;15.80;99.90;;;;;;5094389;28;20467;-77
2021/07/07 03:03:28;;;;;;;3.10;2.00;;;15.70;99.90;;;;;;5094291;28;20853;-76
2021/07/07 03:05:57;;;;;;;2.30;2.10;;;15.70;99.90;;;;;;5094058;28;20455;-76
2021/07/07 03:08:26;;;;;;;4.20;2.50;;;15.70;99.90;;;;;;5094648;28;20503;-76
2021/07/07 03:10:54;;;;;;;3.20;1.80;;;15.60;99.90;;;;;;5094074;28;20451;-76
2021/07/07 03:13:22;;;;;;;2.17;1.97;;;15.60;99.90;;;;;;5094006;28;20452;-77
2021/07/07 03:15:50;;;;;;;2.60;2.17;;;15.50;99.90;;;;;;5094287;28;20452;-77
2021/07/07 03:18:17;;;;;;;2.20;2.00;;;15.50;99.90;;;;;;5094152;28;20460;-77
2021/07/07 03:20:45;;;;;;;2.30;1.90;;;15.50;99.90;;;;;;5094195;28;20451;-77
2021/07/07 03:23:15;;;;;;;2.60;2.10;;;15.50;99.90;;;;;;5094159;28;20450;-78
2021/07/07 03:25:42;;;;;;;1.90;1.80;;;15.50;99.90;;;;;;5094154;28;20490;-77
2021/07/07 03:28:09;;;;;;;4.37;1.87;;;15.50;99.90;;;;;;5093630;28;20484;-77
2021/07/07 03:30:36;;;;;;;1.77;1.67;;;15.50;99.90;;;;;;5094070;28;20432;-77
2021/07/07 03:33:04;;;;;;;1.70;1.60;;;15.50;99.90;;;;;;5094094;28;20435;-77
2021/07/07 03:35:31;;;;;;;2.03;1.70;;;15.50;99.90;;;;;;5093951;28;20447;-77
2021/07/07 03:37:58;;;;;;;1.80;1.43;;;15.50;99.90;;;;;;5093826;28;20468;-77
2021/07/07 03:40:28;;;;;;;2.90;1.90;;;15.40;99.90;;;;;;5093263;28;20965;-77
2021/07/07 03:42:54;;;;;;;1.60;1.50;;;15.50;99.90;;;;;;5093818;28;20444;-77
2021/07/07 03:45:22;;;;;;;1.60;1.50;;;15.40;99.90;;;;;;5093576;28;20439;-77
2021/07/07 03:47:49;;;;;;;1.63;1.53;;;15.40;99.90;;;;;;5093287;28;20866;-77
2021/07/07 03:50:18;;;;;;;3.33;2.00;;;15.40;99.90;;;;;;5093742;28;20439;-77
2021/07/07 03:52:45;;;;;;;2.63;1.77;;;15.40;99.90;;;;;;5093712;28;20448;-77
2021/07/07 03:55:15;;;;;;;5.10;1.70;;;15.40;99.90;;;;;;5093696;28;20447;-77
2021/07/07 03:57:43;;;;;;;1.63;1.53;;;15.40;99.90;;;;;;5093373;28;20463;-77
2021/07/07 04:00:12;;;;;;;3.00;1.70;;;15.40;99.90;;;;;;5093607;28;20454;-77
2021/07/07 04:02:39;;;;;;;2.50;1.73;;;15.30;99.90;;;;;;5093381;28;20483;-77
2021/07/07 04:05:08;;;;;;;1.80;1.63;;;15.30;99.90;;;;;;5093429;28;20934;-77
2021/07/07 04:07:35;;;;;;;2.80;1.87;;;15.30;99.90;;;;;;5093370;28;20515;-78
2021/07/07 04:10:02;;;;;;;6.17;2.10;;;15.30;99.90;;;;;;5093486;28;20456;-77
2021/07/07 04:12:29;;;;;;;2.50;1.60;;;15.40;99.90;;;;;;5093440;28;20444;-78
2021/07/07 04:14:57;;;;;;;1.80;1.70;;;15.40;99.90;;;;;;5093196;28;20432;-78
2021/07/07 04:17:23;;;;;;;2.00;1.90;;;15.40;99.90;;;;;;5093311;28;20443;-78
2021/07/07 04:19:50;;;;;;;2.87;1.83;;;15.40;99.90;;;;;;5093375;28;20958;-77
2021/07/07 04:22:17;;;;;;;5.33;1.90;;;15.40;99.90;;;;;;5093060;28;20452;-75
2021/07/07 04:24:44;;;;;;;1.97;1.53;;;15.40;99.90;;;;;;5093614;28;20444;-75
2021/07/07 04:27:10;;;;;;;3.50;1.67;;;15.40;99.90;;;;;;5093205;28;20490;-76
2021/07/07 04:29:37;;;;;;;2.40;1.77;;;15.40;99.90;;;;;;5093291;28;20448;-76
2021/07/07 04:32:07;;;;;;;2.17;1.70;;;15.40;99.90;;;;;;5093254;28;20440;-76
2021/07/07 04:34:33;;;;;;;2.57;1.63;;;15.30;99.90;;;;;;5093187;28;20456;-77
2021/07/07 04:37:01;;;;;;;1.70;1.60;;;15.30;99.90;;;;;;5093235;28;20435;-77
2021/07/07 04:39:28;;;;;;;2.00;1.57;;;15.30;99.90;;;;;;5092856;28;20986;-77
2021/07/07 04:41:54;;;;;;;3.50;1.87;;;15.20;99.90;;;;;;5093215;28;20814;-77
2021/07/07 04:44:21;;;;;;;9.10;2.17;;;15.20;99.90;;;;;;5092847;28;20947;-77
2021/07/07 04:46:48;;;;;;;3.17;2.30;;;15.20;99.90;;;;;;5093071;28;20809;-77
2021/07/07 04:49:16;;;;;;;2.70;1.70;;;15.20;99.90;;;;;;5092762;28;20460;-77
2021/07/07 04:51:43;;;;;;;3.20;1.40;;;15.20;99.90;;;;;;5092858;28;20433;-77
2021/07/07 04:54:10;;;;;;;2.50;1.57;;;15.20;99.90;;;;;;5095979;28;20448;-78
2021/07/07 04:56:37;;;;;;;3.17;1.40;;;15.20;99.90;;;;;;5097928;28;20448;-78
2021/07/07 04:59:03;;;;;;;2.17;1.80;;;15.20;99.90;;;;;;5096596;28;20468;-78
2021/07/07 05:01:30;;;;;;;1.57;1.47;;;15.20;99.90;;;;;;5096943;28;20482;-78
2021/07/07 05:03:57;;;;;;;4.13;2.17;;;15.20;99.90;;;;;;5096553;28;20947;-78
2021/07/07 05:06:25;;;;;;;2.47;2.23;;;15.20;99.90;;;;;;5096786;28;20454;-78
2021/07/07 05:08:53;;;;;;;2.13;1.93;;;15.20;99.90;;;;;;5096620;28;20545;-78
2021/07/07 05:11:20;;;;;;;3.03;1.83;;;15.20;99.90;;;;;;5096673;28;20447;-78
2021/07/07 05:13:47;;;;;;;1.90;1.80;;;15.20;99.90;;;;;;5096488;28;20452;-78
2021/07/07 05:16:14;;;;;;;3.30;1.93;;;15.20;99.90;;;;;;5096603;28;20452;-78
2021/07/07 05:18:40;;;;;;;2.40;2.30;;;15.30;99.90;;;;;;5096520;28;20471;-78
2021/07/07 05:21:08;;;;;;;3.50;2.20;;;15.40;99.90;;;;;;5096671;28;20444;-78
2021/07/07 05:23:36;;;;;;;3.20;2.00;;;15.40;99.90;;;;;;5096439;28;20483;-78
2021/07/07 05:26:04;;;;;;;2.30;2.20;;;15.40;99.90;;;;;;5096378;28;20463;-77
2021/07/07 05:28:31;;;;;;;4.00;2.70;;;15.40;99.90;;;;;;5096465;28;20570;-78
2021/07/07 05:31:04;;;;;;;2.47;2.30;;;15.40;99.90;;;;;;5096922;28;20935;-78
2021/07/07 05:33:34;;;;;;;3.77;2.10;;;15.40;99.90;;;;;;5096334;28;20833;-78
2021/07/07 05:36:01;;;;;;;3.60;2.53;;;15.40;99.90;;;;;;5096300;28;20428;-78
2021/07/07 05:38:27;;;;;;;2.90;2.60;;;15.50;99.90;;;;;;5096100;28;20451;-78
2021/07/07 05:40:55;;;;;;;3.50;2.70;;;15.50;99.90;;;;;;5096391;28;20777;-78
2021/07/07 05:43:23;;;;;;;2.47;2.30;;;15.50;99.90;;;;;;5096053;28;20818;-77
2021/07/07 05:45:50;;;;;;;3.33;2.20;;;15.50;99.90;;;;;;5096203;28;20452;-78
2021/07/07 05:48:17;;;;;;;6.50;2.90;;;15.50;99.90;;;;;;5095847;28;20499;-79
2021/07/07 05:50:43;;;;;;;2.60;2.20;;;15.50;99.90;;;;;;5096215;28;20448;-77
2021/07/07 05:53:11;;;;;;;3.50;2.77;;;15.50;99.90;;;;;;5095918;28;20440;-77
2021/07/07 05:55:37;;;;;;;3.13;2.80;;;15.60;99.90;;;;;;5095846;28;20447;-77
2021/07/07 05:58:06;;;;;;;2.70;2.50;;;15.50;99.90;;;;;;5095990;28;20460;-77
2021/07/07 06:00:32;;;;;;;4.40;2.80;;;15.50;99.90;;;;;;5095846;28;20785;-77
2021/07/07 06:02:59;;;;;;;3.37;2.70;;;15.50;99.90;;;;;;5095272;28;20491;-77
2021/07/07 06:05:27;;;;;;;3.10;2.90;;;15.60;99.90;;;;;;5095303;28;20478;-77
2021/07/07 06:07:54;;;;;;;3.10;2.90;;;15.60;99.90;;;;;;5095421;28;20499;-77
2021/07/07 06:10:24;;;;;;;4.63;2.93;;;15.60;99.90;;;;;;5095535;28;20473;-77
2021/07/07 06:12:51;;;;;;;3.37;2.70;;;15.60;99.90;;;;;;5095537;28;20451;-78
2021/07/07 06:15:19;;;;;;;2.80;2.60;;;15.70;99.90;;;;;;5095621;28;20448;-78
2021/07/07 06:17:46;;;;;;;55.93;9.57;;;15.70;99.90;;;;;;5095062;28;21029;-78
2021/07/07 06:20:15;;;;;;;3.57;2.97;;;15.70;99.90;;;;;;5095058;28;20856;-77
2021/07/07 06:22:42;;;;;;;2.67;2.43;;;15.60;99.90;;;;;;5095565;28;20456;-77
2021/07/07 06:25:11;;;;;;;12.43;3.67;;;15.60;99.90;;;;;;5095517;28;20448;-77
2021/07/07 06:27:40;;;;;;;74.13;13.73;;;15.50;99.90;;;;;;5095082;28;20487;-77
2021/07/07 06:30:08;;;;;;;1.93;1.53;;;15.50;99.90;;;;;;5094835;28;20825;-77
2021/07/07 06:32:37;;;;;;;3.00;1.80;;;15.50;99.90;;;;;;5095186;28;20824;-77
2021/07/07 06:35:04;;;;;;;3.90;3.40;;;15.40;99.90;;;;;;5095278;28;20452;-78
2021/07/07 06:37:31;;;;;;;5.00;2.20;;;15.40;99.90;;;;;;5094955;28;20440;-78
2021/07/07 06:39:58;;;;;;;2.70;1.90;;;15.50;99.90;;;;;;5094691;28;20452;-78
2021/07/07 06:42:24;;;;;;;1.97;1.40;;;15.50;99.90;;;;;;5094607;28;20455;-78
2021/07/07 06:44:51;;;;;;;4.50;2.00;;;15.50;99.90;;;;;;5094594;28;20946;-78
2021/07/07 06:47:18;;;;;;;2.53;2.33;;;15.50;99.90;;;;;;5094705;28;20455;-79
2021/07/07 06:49:46;;;;;;;6.57;1.53;;;15.40;99.90;;;;;;5094744;28;20451;-79
2021/07/07 06:52:13;;;;;;;3.40;1.80;;;15.40;99.90;;;;;;5094744;28;20484;-79
2021/07/07 06:54:42;;;;;;;2.83;1.30;;;15.30;99.90;;;;;;5094675;28;20448;-79
2021/07/07 06:57:09;;;;;;;1.67;1.40;;;15.40;99.90;;;;;;5094584;28;20452;-79
2021/07/07 06:59:35;;;;;;;3.23;1.23;;;15.40;99.90;;;;;;5094251;28;20452;-78
2021/07/07 07:02:03;;;;;;;1.40;1.30;;;15.40;99.90;;;;;;5093991;28;20475;-79
2021/07/07 07:04:30;;;;;;;3.47;1.50;;;15.40;99.90;;;;;;5094148;28;20462;-79
2021/07/07 07:06:58;;;;;;;2.00;1.63;;;15.30;99.90;;;;;;5094418;28;20474;-78
2021/07/07 07:09:26;;;;;;;1.40;1.30;;;15.40;99.90;;;;;;5094268;28;20487;-78
2021/07/07 07:11:53;;;;;;;1.67;1.50;;;15.40;99.90;;;;;;5094055;28;20448;-78
2021/07/07 07:14:20;;;;;;;1.67;1.57;;;15.40;99.90;;;;;;5094359;28;20440;-78
2021/07/07 07:16:47;;;;;;;2.13;1.80;;;15.40;99.90;;;;;;5093711;28;20448;-78
2021/07/07 07:19:14;;;;;;;4.83;2.30;;;15.40;99.90;;;;;;5094151;28;20459;-78
2021/07/07 07:21:42;;;;;;;1.70;1.60;;;15.50;99.90;;;;;;5093935;28;20443;-78
2021/07/07 07:24:10;;;;;;;1.60;1.50;;;15.40;99.90;;;;;;5094138;28;20456;-78
2021/07/07 07:26:37;;;;;;;1.57;1.30;;;15.40;99.90;;;;;;5093806;28;20451;-78
2021/07/07 07:29:05;;;;;;;1.83;1.27;;;15.50;99.90;;;;;;5093914;28;20483;-78
2021/07/07 07:31:33;;;;;;;3.80;1.83;;;15.50;99.90;;;;;;5093708;28;20819;-78
2021/07/07 07:33:59;;;;;;;3.33;1.37;;;15.50;99.90;;;;;;5093806;28;20440;-78
2021/07/07 07:36:26;;;;;;;1.27;1.17;;;15.60;99.90;;;;;;5093451;28;20448;-78
2021/07/07 07:39:00;;;;;;;3.87;2.03;;;15.60;99.90;;;;;;5093857;28;20466;-78
2021/07/07 07:41:32;;;;;;;1.20;1.10;;;15.70;99.90;;;;;;5093636;28;20851;-78
2021/07/07 07:43:59;;;;;;;2.20;1.00;;;15.70;99.90;;;;;;5094146;28;20455;-78
2021/07/07 07:46:28;;;;;;;3.13;1.60;;;15.70;99.90;;;;;;5093846;28;20452;-78
2021/07/07 07:48:56;;;;;;;2.07;1.60;;;15.70;99.90;;;;;;5093621;28;20487;-80
2021/07/07 07:51:23;;;;;;;1.77;1.03;;;15.80;99.90;;;;;;5093714;28;20447;-80
2021/07/07 07:53:50;;;;;;;3.93;1.47;;;15.90;99.90;;;;;;5093686;28;20463;-80
2021/07/07 07:56:17;;;;;;;6.07;1.63;;;15.90;99.90;;;;;;5093667;28;20451;-81
2021/07/07 07:58:45;;;;;;;1.97;1.40;;;15.90;99.90;;;;;;5093498;28;20475;-81
2021/07/07 08:01:12;;;;;;;2.70;1.77;;;15.90;99.90;;;;;;5093445;28;20506;-82
2021/07/07 08:03:39;;;;;;;1.77;1.60;;;15.90;99.90;;;;;;5093553;28;20452;-82
2021/07/07 08:06:06;;;;;;;1.37;1.23;;;15.90;99.90;;;;;;5093558;28;20443;-81
2021/07/07 08:08:33;;;;;;;1.50;1.40;;;15.80;99.90;;;;;;5093275;28;20486;-81
2021/07/07 08:11:00;;;;;;;1.33;1.23;;;15.80;99.90;;;;;;5094040;28;20443;-80
2021/07/07 08:13:26;;;;;;;2.53;1.30;;;15.80;99.90;;;;;;5093461;28;20446;-80
2021/07/07 08:15:55;;;;;;;1.50;1.40;;;15.80;99.90;;;;;;5093149;28;20789;-80
2021/07/07 08:18:21;;;;;;;1.90;1.80;;;15.80;99.90;;;;;;5093400;28;20467;-81
2021/07/07 08:20:48;;;;;;;2.07;1.97;;;15.80;99.90;;;;;;5093376;28;20448;-79
2021/07/07 08:23:15;;;;;;;2.60;1.73;;;15.80;99.90;;;;;;5094115;28;20446;-79
2021/07/07 08:25:42;;;;;;;2.90;1.63;;;15.90;99.90;;;;;;5093270;28;20452;-81
2021/07/07 08:28:09;;;;;;;1.80;1.70;;;15.90;99.90;;;;;;5094461;28;20494;-80
2021/07/07 08:30:35;;;;;;;4.20;1.70;;;15.90;99.90;;;;;;5097344;28;20447;-80
2021/07/07 08:33:04;;;;;;;1.90;1.67;;;15.90;99.90;;;;;;5097347;28;20459;-80
2021/07/07 08:35:31;;;;;;;1.80;1.70;;;15.90;99.90;;;;;;5097374;28;20448;-80
2021/07/07 08:37:57;;;;;;;12.57;2.90;;;16.00;99.90;;;;;;5097023;28;20470;-80
2021/07/07 08:40:25;;;;;;;10.07;4.70;;;16.00;99.90;;;;;;5097284;28;20440;-80
2021/07/07 08:42:52;;;;;;;8.33;2.50;;;16.10;99.90;;;;;;5097246;28;20448;-80
2021/07/07 08:45:19;;;;;;;4.30;2.10;;;16.20;99.90;;;;;;5096931;28;20443;-80
2021/07/07 08:47:47;;;;;;;3.10;2.30;;;16.20;99.90;;;;;;5096743;28;20990;-80
2021/07/07 08:50:18;;;;;;;2.00;1.90;;;16.20;99.90;;;;;;5097124;28;20447;-80
2021/07/07 08:52:45;;;;;;;2.20;2.10;;;16.20;99.90;;;;;;5097068;28;20436;-80
2021/07/07 08:55:14;;;;;;;1.50;1.40;;;16.30;99.90;;;;;;5097035;28;20444;-79
2021/07/07 08:57:44;;;;;;;1.30;1.20;;;16.40;99.90;;;;;;5096642;28;20982;-80
2021/07/07 09:00:15;;;;;;;3.30;1.87;;;16.50;99.90;;;;;;5097273;28;20437;-80
2021/07/07 09:02:50;;;;;;;2.90;1.57;;;16.60;99.90;;;;;;5096691;28;20484;-76
2021/07/07 09:05:19;;;;;;;1.63;1.53;;;16.60;99.90;;;;;;5096871;28;20432;-80
2021/07/07 09:07:46;;;;;;;2.70;1.73;;;16.70;99.90;;;;;;5096664;28;20456;-80
2021/07/07 09:10:17;;;;;;;1.20;1.10;;;16.70;99.90;;;;;;5096699;28;20479;-80
2021/07/07 09:12:44;;;;;;;1.50;1.40;;;16.60;99.90;;;;;;5096445;28;20907;-80
2021/07/07 09:15:16;;;;;;;3.83;1.27;;;16.60;99.90;;;;;;5096648;28;20471;-78
2021/07/07 09:17:48;;;;;;;1.53;1.43;;;16.50;99.90;;;;;;5097313;28;20471;-80
2021/07/07 09:20:22;;;;;;;1.57;1.33;;;16.50;99.90;;;;;;5096591;28;20515;-80
2021/07/07 09:22:50;;;;;;;1.20;1.10;;;16.50;99.90;;;;;;5096203;28;20891;-80
2021/07/07 09:25:19;;;;;;;1.47;1.37;;;16.50;99.90;;;;;;5096982;28;20432;-80
2021/07/07 09:27:50;;;;;;;1.40;1.27;;;16.50;99.90;;;;;;5096481;28;20531;-80
2021/07/07 09:30:17;;;;;;;1.30;1.20;;;16.50;99.90;;;;;;5096359;28;20460;-81
2021/07/07 09:32:47;;;;;;;1.67;1.13;;;16.60;99.90;;;;;;5096390;28;20902;-80
2021/07/07 09:35:14;;;;;;;1.57;0.93;;;16.60;99.90;;;;;;5096820;28;20455;-80
2021/07/07 09:37:49;;;;;;;1.30;1.00;;;16.60;99.90;;;;;;5096758;28;20967;-82
2021/07/07 09:40:17;;;;;;;1.30;1.20;;;16.60;99.90;;;;;;5095662;28;20522;-78
2021/07/07 09:42:46;;;;;;;1.47;1.37;;;16.60;99.90;;;;;;5096144;28;20433;-78
2021/07/07 09:45:15;;;;;;;1.10;1.10;;;16.60;99.90;;;;;;5096514;28;20433;-78
2021/07/07 09:47:43;;;;;;;1.40;1.30;;;16.60;99.90;;;;;;5096252;28;20468;-78
2021/07/07 09:50:11;;;;;;;3.10;1.67;;;16.60;99.90;;;;;;5095990;28;20507;-78
2021/07/07 09:52:38;;;;;;;3.90;1.37;;;16.70;99.90;;;;;;5096026;28;20790;-78
2021/07/07 09:55:09;;;;;;;1.33;1.23;;;16.70;99.90;;;;;;5095869;28;20556;-78
2021/07/07 09:57:44;;;;;;;1.57;1.20;;;16.70;99.90;;;;;;5095495;28;20456;-77
2021/07/07 10:00:13;;;;;;;1.20;1.00;;;16.70;99.90;;;;;;5096107;28;20519;-79
2021/07/07 10:02:40;;;;;;;1.73;1.63;;;16.70;99.90;;;;;;5095444;28;20484;-79
2021/07/07 10:05:09;;;;;;;1.10;1.10;;;16.80;99.90;;;;;;5095299;28;20785;-79
2021/07/07 10:07:36;;;;;;;1.27;1.20;;;16.80;99.90;;;;;;5095350;28;20864;-79
2021/07/07 10:10:07;;;;;;;1.40;1.30;;;16.90;99.90;;;;;;5096385;28;20480;-82
2021/07/07 10:12:34;;;;;;;1.20;0.90;;;17.00;99.90;;;;;;5095313;28;21009;-82
2021/07/07 10:15:02;;;;;;;1.77;1.20;;;17.20;99.90;;;;;;5095512;28;20439;-82
2021/07/07 10:17:28;;;;;;;2.50;1.20;;;17.30;99.90;;;;;;5095329;28;20448;-81
2021/07/07 10:19:58;;;;;;;1.40;1.30;;;17.40;99.90;;;;;;5095791;28;20429;-83
2021/07/07 10:22:25;;;;;;;1.03;1.03;;;17.40;99.90;;;;;;5095408;28;20896;-83
2021/07/07 10:24:53;;;;;;;2.00;1.00;;;17.30;99.90;;;;;;5095101;28;20499;-83
2021/07/07 10:27:21;;;;;;;1.07;1.07;;;17.30;99.90;;;;;;5095194;28;20434;-83
2021/07/07 10:29:49;;;;;;;0.93;0.90;;;17.40;99.90;;;;;;5095151;28;20479;-83
2021/07/07 10:32:16;;;;;;;2.60;1.00;;;17.30;99.90;;;;;;5094960;28;20404;-83
2021/07/07 10:34:43;;;;;;;2.00;1.17;;;17.40;99.90;;;;;;5094886;28;20462;-83
2021/07/07 10:37:10;;;;;;;1.90;1.37;;;17.60;99.90;;;;;;5094989;28;20938;-83
2021/07/07 10:39:37;;;;;;;1.37;1.27;;;17.60;99.90;;;;;;5094974;28;20468;-83
2021/07/07 10:42:05;;;;;;;6.10;2.30;;;17.70;99.90;;;;;;5094678;28;20907;-83
2021/07/07 10:44:53;;;;;;;0.80;0.80;;;17.60;99.90;;;;;;5095010;28;20436;-83
2021/07/07 10:47:40;;;;;;;1.43;1.33;;;17.70;99.90;;;;;;5094507;28;20908;-83
2021/07/07 10:50:09;;;;;;;1.20;1.10;;;17.70;99.90;;;;;;5093900;28;20460;-83
2021/07/07 10:52:43;;;;;;;1.63;1.53;;;17.70;99.90;;;;;;5094649;28;20436;-83
2021/07/07 10:55:12;;;;;;;1.30;1.20;;;17.80;99.90;;;;;;5094759;28;20431;-83
2021/07/07 10:57:40;;;;;;;1.63;1.30;;;17.80;99.90;;;;;;5094493;28;20456;-83
2021/07/07 11:00:25;;;;;;;2.53;1.07;;;17.90;99.90;;;;;;5094867;28;20440;-83
2021/07/07 11:03:19;;;;;;;1.83;1.20;;;18.10;99.90;;;;;;5094195;28;20834;-83
2021/07/07 11:05:46;;;;;;;1.33;1.00;;;18.20;99.90;;;;;;5094251;28;20819;-83
2021/07/07 11:08:17;;;;;;;2.70;1.40;;;18.20;99.90;;;;;;5094364;28;20468;-84
2021/07/07 11:10:54;;;;;;;1.50;1.20;;;18.20;99.90;;;;;;5094082;28;20470;-84
2021/07/07 11:13:21;;;;;;;1.40;0.97;;;18.20;99.90;;;;;;5094145;28;20806;-84
2021/07/07 11:15:49;;;;;;;1.30;1.20;;;18.30;99.90;;;;;;5094352;28;20420;-84
2021/07/07 11:18:19;;;;;;;1.47;1.27;;;18.30;99.90;;;;;;5094284;28;20478;-83
2021/07/07 11:20:55;;;;;;;1.83;1.40;;;18.30;99.90;;;;;;5094309;28;20482;-84
2021/07/07 11:23:22;;;;;;;2.83;1.37;;;18.40;99.90;;;;;;5094376;28;20448;-84
2021/07/07 11:25:49;;;;;;;1.57;1.30;;;18.40;99.90;;;;;;5094665;28;20431;-83
2021/07/07 11:28:17;;;;;;;1.20;1.10;;;18.40;99.90;;;;;;5093977;28;20472;-83
2021/07/07 11:30:44;;;;;;;1.27;1.17;;;18.50;99.90;;;;;;5094155;28;20525;-83
2021/07/07 11:33:12;;;;;;;2.67;1.30;;;18.60;99.90;;;;;;5094009;28;20432;-83
2021/07/07 11:35:41;;;;;;;0.90;0.87;;;18.80;99.90;;;;;;5093750;28;20901;-83
2021/07/07 11:38:10;;;;;;;3.23;1.87;;;18.90;99.90;;;;;;5093939;28;20464;-83
2021/07/07 11:40:38;;;;;;;2.30;1.30;;;19.00;99.90;;;;;;5093934;28;20521;-83
2021/07/07 11:43:07;;;;;;;0.80;0.80;;;19.20;99.90;;;;;;5093547;28;20935;-83
2021/07/07 11:45:36;;;;;;;1.27;1.17;;;19.30;99.90;;;;;;5093885;28;20440;-83
2021/07/07 11:48:09;;;;;;;1.63;1.27;;;19.40;99.90;;;;;;5093436;28;20994;-83
2021/07/07 11:50:41;;;;;;;3.80;1.10;;;19.40;99.90;;;;;;5093757;28;20472;-83
2021/07/07 11:53:09;;;;;;;1.10;1.00;;;19.40;99.90;;;;;;5093958;28;20519;-83
2021/07/07 11:55:50;;;;;;;1.43;1.00;;;19.30;99.90;;;;;;5093749;28;20413;-83
2021/07/07 11:58:23;;;;;;;1.90;1.03;;;19.30;99.90;;;;;;5093553;28;20455;-83
2021/07/07 12:00:51;;;;;;;4.00;1.20;;;19.30;99.90;;;;;;5093465;28;20432;-83
2021/07/07 12:03:19;;;;;;;3.00;1.30;;;19.50;99.90;;;;;;5093535;28;20443;-83
2021/07/07 12:05:56;;;;;;;1.43;1.37;;;19.50;99.90;;;;;;5093639;28;20405;-82
2021/07/07 12:08:24;;;;;;;1.10;1.00;;;19.50;99.90;;;;;;5093505;28;20542;-83
2021/07/07 12:10:52;;;;;;;0.90;0.90;;;19.60;99.90;;;;;;5093600;28;20456;-83
2021/07/07 12:13:25;;;;;;;1.17;1.07;;;19.70;99.90;;;;;;5093529;28;20436;-83
2021/07/07 12:15:52;;;;;;;3.90;2.20;;;19.60;99.90;;;;;;5093544;28;20466;-83
2021/07/07 12:18:27;;;;;;;1.70;1.30;;;19.40;99.90;;;;;;5093331;28;20468;-83
2021/07/07 12:20:56;;;;;;;1.13;1.00;;;19.40;99.90;;;;;;5093964;28;20424;-83
2021/07/07 12:23:24;;;;;;;2.93;1.53;;;19.40;99.90;;;;;;5093420;28;20439;-83
2021/07/07 12:26:01;;;;;;;1.63;0.90;;;19.40;99.90;;;;;;5093137;28;20421;-79
2021/07/07 12:28:30;;;;;;;1.10;1.10;;;19.40;99.90;;;;;;5093260;28;20464;-79
2021/07/07 12:30:57;;;;;;;1.67;1.10;;;19.30;99.90;;;;;;5093237;28;20489;-84
2021/07/07 12:33:24;;;;;;;1.37;1.27;;;19.30;99.90;;;;;;5093269;28;20432;-84
2021/07/07 12:35:51;;;;;;;1.30;1.30;;;19.20;99.90;;;;;;5093258;28;20439;-84
2021/07/07 12:38:19;;;;;;;3.13;1.10;;;19.20;99.90;;;;;;5093177;28;20468;-83
2021/07/07 12:40:54;;;;;;;0.90;0.90;;;19.20;99.90;;;;;;5093268;28;20408;-83
2021/07/07 12:43:28;;;;;;;1.03;0.90;;;19.20;99.90;;;;;;5093408;28;20438;-83
2021/07/07 12:46:05;;;;;;;1.40;1.30;;;19.40;99.90;;;;;;5092889;28;20428;-83
2021/07/07 12:48:47;;;;;;;1.83;1.00;;;19.50;99.90;;;;;;5092810;28;20467;-83
2021/07/07 12:51:20;;;;;;;0.80;0.80;;;19.70;99.90;;;;;;5094010;28;20468;-83